Manes, Missouri
Current Conditions -  °F | °C
As of 1:58 PM on Friday 28 Nov 2014 (Local Time) from KTBN Reporting Station
Clear Clear  
Wind Chill: 56°   Ceiling: Unl
Heat Index: 56°   Visibility: 10mi
Dew Point: 33°   Wind: 10mph
Humidity: 43%   Direction: 200°SSW
Pressure: 29.95"   Gusts: 22mph
Location:  37.2656°N, 92.3257°W
Report Text: KTBN 281958Z AUTO 20009G19KT 160V230 10SM CLR 13/01 A2995 RMK AO2 SLP150 T01310007 $
Loading
Personal Weather Stations






























Interactive Weather Map New forecast layout! Learn more

10-Day Weather Forecast

Advertisements
Track Severe Weather on mobile